sensor_id;sensor_type;location;lat;lon;timestamp;temperature;humidity
15997;DHT22;8103;51.340;12.326;2022-10-04T00:01:10;12.90;99.90
15997;DHT22;8103;51.340;12.326;2022-10-04T00:03:48;12.90;99.90
15997;DHT22;8103;51.340;12.326;2022-10-04T00:06:27;12.80;99.90
15997;DHT22;8103;51.340;12.326;2022-10-04T00:09:05;12.90;99.90
15997;DHT22;8103;51.340;12.326;2022-10-04T00:11:37;12.80;99.90
15997;DHT22;8103;51.340;12.326;2022-10-04T00:14:37;12.80;99.90
15997;DHT22;8103;51.340;12.326;2022-10-04T00:17:10;12.70;99.90
15997;DHT22;8103;51.340;12.326;2022-10-04T00:19:48;12.70;99.90
15997;DHT22;8103;51.340;12.326;2022-10-04T00:22:19;12.60;99.90
15997;DHT22;8103;51.340;12.326;2022-10-04T00:27:33;12.50;99.90
15997;DHT22;8103;51.340;12.326;2022-10-04T00:38:00;12.50;99.90
15997;DHT22;8103;51.340;12.326;2022-10-04T00:43:28;12.50;99.90
15997;DHT22;8103;51.340;12.326;2022-10-04T00:46:13;12.50;99.90
15997;DHT22;8103;51.340;12.326;2022-10-04T00:48:59;12.50;99.90
15997;DHT22;8103;51.340;12.326;2022-10-04T00:51:37;12.50;99.90
15997;DHT22;8103;51.340;12.326;2022-10-04T00:54:43;12.50;99.90
15997;DHT22;8103;51.340;12.326;2022-10-04T00:57:29;12.60;99.90
15997;DHT22;8103;51.340;12.326;2022-10-04T01:00:15;12.60;99.90
15997;DHT22;8103;51.340;12.326;2022-10-04T01:05:39;12.70;99.90
15997;DHT22;8103;51.340;12.326;2022-10-04T01:08:23;12.70;99.90
15997;DHT22;8103;51.340;12.326;2022-10-04T01:10:59;12.60;99.90
15997;DHT22;8103;51.340;12.326;2022-10-04T01:13:36;12.60;99.90
15997;DHT22;8103;51.340;12.326;2022-10-04T01:16:17;12.60;99.90
15997;DHT22;8103;51.340;12.326;2022-10-04T01:18:45;12.60;99.90
15997;DHT22;8103;51.340;12.326;2022-10-04T01:23:48;12.50;99.90
15997;DHT22;8103;51.340;12.326;2022-10-04T01:29:07;12.50;99.90
15997;DHT22;8103;51.340;12.326;2022-10-04T01:31:43;12.50;99.90
15997;DHT22;8103;51.340;12.326;2022-10-04T01:34:21;12.50;99.90
15997;DHT22;8103;51.340;12.326;2022-10-04T01:36:52;12.50;99.90
15997;DHT22;8103;51.340;12.326;2022-10-04T01:39:23;12.50;99.90
15997;DHT22;8103;51.340;12.326;2022-10-04T01:42:16;12.50;99.90
15997;DHT22;8103;51.340;12.326;2022-10-04T01:45:46;12.50;99.90
15997;DHT22;8103;51.340;12.326;2022-10-04T01:48:12;12.50;99.90
15997;DHT22;8103;51.340;12.326;2022-10-04T01:50:52;12.50;99.90
15997;DHT22;8103;51.340;12.326;2022-10-04T01:53:30;12.50;99.90
15997;DHT22;8103;51.340;12.326;2022-10-04T01:56:13;12.50;99.90
15997;DHT22;8103;51.340;12.326;2022-10-04T01:58:46;12.40;99.90
15997;DHT22;8103;51.340;12.326;2022-10-04T02:01:44;12.40;99.90
15997;DHT22;8103;51.340;12.326;2022-10-04T02:04:18;12.40;99.90
15997;DHT22;8103;51.340;12.326;2022-10-04T02:06:51;12.40;99.90
15997;DHT22;8103;51.340;12.326;2022-10-04T02:09:26;12.30;99.90
15997;DHT22;8103;51.340;12.326;2022-10-04T02:11:57;12.30;99.90
15997;DHT22;8103;51.340;12.326;2022-10-04T02:14:31;12.20;99.90
15997;DHT22;8103;51.340;12.326;2022-10-04T02:17:02;12.10;99.90
15997;DHT22;8103;51.340;12.326;2022-10-04T02:19:38;12.00;99.90
15997;DHT22;8103;51.340;12.326;2022-10-04T02:22:08;12.00;99.90
15997;DHT22;8103;51.340;12.326;2022-10-04T02:24:41;11.90;99.90
15997;DHT22;8103;51.340;12.326;2022-10-04T02:27:11;11.90;99.90
15997;DHT22;8103;51.340;12.326;2022-10-04T02:29:39;11.90;99.90
15997;DHT22;8103;51.340;12.326;2022-10-04T02:32:07;11.80;99.90
15997;DHT22;8103;51.340;12.326;2022-10-04T02:34:54;11.80;99.90
15997;DHT22;8103;51.340;12.326;2022-10-04T02:37:24;11.70;99.90
15997;DHT22;8103;51.340;12.326;2022-10-04T02:40:06;11.60;99.90
15997;DHT22;8103;51.340;12.326;2022-10-04T02:43:11;11.50;99.90
15997;DHT22;8103;51.340;12.326;2022-10-04T02:45:59;11.40;99.90
15997;DHT22;8103;51.340;12.326;2022-10-04T02:51:53;11.30;99.90
15997;DHT22;8103;51.340;12.326;2022-10-04T02:55:00;11.20;99.90
15997;DHT22;8103;51.340;12.326;2022-10-04T02:57:32;11.10;99.90
15997;DHT22;8103;51.340;12.326;2022-10-04T03:00:25;11.10;99.90
15997;DHT22;8103;51.340;12.326;2022-10-04T03:05:43;11.00;99.90
15997;DHT22;8103;51.340;12.326;2022-10-04T03:08:19;11.00;99.90
15997;DHT22;8103;51.340;12.326;2022-10-04T03:10:46;11.00;99.90
15997;DHT22;8103;51.340;12.326;2022-10-04T03:13:14;11.00;99.90
15997;DHT22;8103;51.340;12.326;2022-10-04T03:15:44;10.90;99.90
15997;DHT22;8103;51.340;12.326;2022-10-04T03:18:13;10.90;99.90
15997;DHT22;8103;51.340;12.326;2022-10-04T03:20:41;11.00;99.90
15997;DHT22;8103;51.340;12.326;2022-10-04T03:23:10;11.00;99.90
15997;DHT22;8103;51.340;12.326;2022-10-04T03:26:08;11.00;99.90
15997;DHT22;8103;51.340;12.326;2022-10-04T03:28:41;11.00;99.90
15997;DHT22;8103;51.340;12.326;2022-10-04T03:31:12;11.00;99.90
15997;DHT22;8103;51.340;12.326;2022-10-04T03:33:42;11.00;99.90
15997;DHT22;8103;51.340;12.326;2022-10-04T03:36:13;11.00;99.90
15997;DHT22;8103;51.340;12.326;2022-10-04T03:38:44;11.10;99.90
15997;DHT22;8103;51.340;12.326;2022-10-04T03:41:14;11.10;99.90
15997;DHT22;8103;51.340;12.326;2022-10-04T03:43:45;11.10;99.90
15997;DHT22;8103;51.340;12.326;2022-10-04T03:46:16;11.10;99.90
15997;DHT22;8103;51.340;12.326;2022-10-04T03:48:48;11.10;99.90
15997;DHT22;8103;51.340;12.326;2022-10-04T03:51:25;11.10;99.90
15997;DHT22;8103;51.340;12.326;2022-10-04T03:53:56;11.10;99.90
15997;DHT22;8103;51.340;12.326;2022-10-04T03:56:30;11.00;99.90
15997;DHT22;8103;51.340;12.326;2022-10-04T03:59:04;11.00;99.90
15997;DHT22;8103;51.340;12.326;2022-10-04T04:01:39;10.90;99.90
15997;DHT22;8103;51.340;12.326;2022-10-04T04:07:02;10.80;99.90
15997;DHT22;8103;51.340;12.326;2022-10-04T04:09:46;10.70;99.90
15997;DHT22;8103;51.340;12.326;2022-10-04T04:12:23;10.70;99.90
15997;DHT22;8103;51.340;12.326;2022-10-04T04:14:59;10.70;99.90
15997;DHT22;8103;51.340;12.326;2022-10-04T04:17:33;10.60;99.90
15997;DHT22;8103;51.340;12.326;2022-10-04T04:20:06;10.60;99.90
15997;DHT22;8103;51.340;12.326;2022-10-04T04:25:52;10.60;99.90
15997;DHT22;8103;51.340;12.326;2022-10-04T04:28:38;10.60;99.90
15997;DHT22;8103;51.340;12.326;2022-10-04T04:31:25;10.50;99.90
15997;DHT22;8103;51.340;12.326;2022-10-04T04:34:02;10.50;99.90
15997;DHT22;8103;51.340;12.326;2022-10-04T04:36:40;10.50;99.90
15997;DHT22;8103;51.340;12.326;2022-10-04T04:39:16;10.50;99.90
15997;DHT22;8103;51.340;12.326;2022-10-04T04:44:38;10.50;99.90
15997;DHT22;8103;51.340;12.326;2022-10-04T04:47:29;10.60;99.90
15997;DHT22;8103;51.340;12.326;2022-10-04T04:50:07;10.60;99.90
15997;DHT22;8103;51.340;12.326;2022-10-04T04:52:56;10.60;99.90
15997;DHT22;8103;51.340;12.326;2022-10-04T04:55:31;10.60;99.90
15997;DHT22;8103;51.340;12.326;2022-10-04T04:58:37;10.60;99.90
15997;DHT22;8103;51.340;12.326;2022-10-04T05:06:40;10.60;99.90
15997;DHT22;8103;51.340;12.326;2022-10-04T05:09:30;10.60;99.90
15997;DHT22;8103;51.340;12.326;2022-10-04T05:12:16;10.60;99.90
15997;DHT22;8103;51.340;12.326;2022-10-04T05:14:50;10.60;99.90
15997;DHT22;8103;51.340;12.326;2022-10-04T05:17:32;10.70;99.90
15997;DHT22;8103;51.340;12.326;2022-10-04T05:20:02;10.70;99.90
15997;DHT22;8103;51.340;12.326;2022-10-04T05:22:31;10.70;99.90
15997;DHT22;8103;51.340;12.326;2022-10-04T05:25:02;10.70;99.90
15997;DHT22;8103;51.340;12.326;2022-10-04T05:27:42;10.70;99.90
15997;DHT22;8103;51.340;12.326;2022-10-04T05:34:24;10.70;99.90
15997;DHT22;8103;51.340;12.326;2022-10-04T05:37:26;10.80;99.90
15997;DHT22;8103;51.340;12.326;2022-10-04T05:45:26;10.90;99.90
15997;DHT22;8103;51.340;12.326;2022-10-04T05:48:00;10.90;99.90
15997;DHT22;8103;51.340;12.326;2022-10-04T05:50:41;10.90;99.90
15997;DHT22;8103;51.340;12.326;2022-10-04T05:53:31;11.00;99.90
15997;DHT22;8103;51.340;12.326;2022-10-04T06:07:39;11.10;99.90
15997;DHT22;8103;51.340;12.326;2022-10-04T06:10:51;11.10;99.90
15997;DHT22;8103;51.340;12.326;2022-10-04T06:22:57;11.50;99.90
15997;DHT22;8103;51.340;12.326;2022-10-04T06:25:39;11.60;99.90
15997;DHT22;8103;51.340;12.326;2022-10-04T06:33:58;11.80;99.90
15997;DHT22;8103;51.340;12.326;2022-10-04T06:42:49;11.80;99.90
15997;DHT22;8103;51.340;12.326;2022-10-04T06:53:09;11.90;99.90
15997;DHT22;8103;51.340;12.326;2022-10-04T07:01:35;12.20;99.90
15997;DHT22;8103;51.340;12.326;2022-10-04T07:04:30;12.30;99.90
15997;DHT22;8103;51.340;12.326;2022-10-04T07:07:32;12.50;99.90
15997;DHT22;8103;51.340;12.326;2022-10-04T07:13:10;12.70;99.90
15997;DHT22;8103;51.340;12.326;2022-10-04T07:27:49;13.20;99.90
15997;DHT22;8103;51.340;12.326;2022-10-04T07:33:32;13.50;99.90
15997;DHT22;8103;51.340;12.326;2022-10-04T07:36:12;13.70;99.90
15997;DHT22;8103;51.340;12.326;2022-10-04T07:38:55;13.80;99.90
15997;DHT22;8103;51.340;12.326;2022-10-04T07:41:34;13.90;99.90
15997;DHT22;8103;51.340;12.326;2022-10-04T07:44:39;13.90;99.90
15997;DHT22;8103;51.340;12.326;2022-10-04T07:47:18;14.00;99.90
15997;DHT22;8103;51.340;12.326;2022-10-04T07:49:47;14.10;99.90
15997;DHT22;8103;51.340;12.326;2022-10-04T08:04:45;14.10;99.90
15997;DHT22;8103;51.340;12.326;2022-10-04T08:10:39;14.20;99.90
15997;DHT22;8103;51.340;12.326;2022-10-04T08:22:02;14.60;99.90
15997;DHT22;8103;51.340;12.326;2022-10-04T08:25:05;14.60;99.90
15997;DHT22;8103;51.340;12.326;2022-10-04T08:51:05;15.30;99.90
15997;DHT22;8103;51.340;12.326;2022-10-04T09:04:58;15.60;99.90
15997;DHT22;8103;51.340;12.326;2022-10-04T09:08:05;15.80;99.90
15997;DHT22;8103;51.340;12.326;2022-10-04T09:11:22;16.10;99.90
15997;DHT22;8103;51.340;12.326;2022-10-04T09:17:34;16.60;98.40
15997;DHT22;8103;51.340;12.326;2022-10-04T09:20:26;16.80;97.80
15997;DHT22;8103;51.340;12.326;2022-10-04T10:01:44;20.20;90.40
15997;DHT22;8103;51.340;12.326;2022-10-04T10:04:47;20.90;84.40
15997;DHT22;8103;51.340;12.326;2022-10-04T10:10:56;23.60;72.40
15997;DHT22;8103;51.340;12.326;2022-10-04T10:17:42;26.60;53.70
15997;DHT22;8103;51.340;12.326;2022-10-04T10:23:09;26.90;49.90
15997;DHT22;8103;51.340;12.326;2022-10-04T10:26:08;26.70;50.30
15997;DHT22;8103;51.340;12.326;2022-10-04T10:31:46;27.50;47.50
15997;DHT22;8103;51.340;12.326;2022-10-04T10:44:20;32.20;36.90
15997;DHT22;8103;51.340;12.326;2022-10-04T10:46:57;32.40;36.10
15997;DHT22;8103;51.340;12.326;2022-10-04T11:05:50;33.40;33.30
15997;DHT22;8103;51.340;12.326;2022-10-04T11:09:25;34.20;32.60
15997;DHT22;8103;51.340;12.326;2022-10-04T11:24:28;31.10;36.00
15997;DHT22;8103;51.340;12.326;2022-10-04T11:27:52;29.90;37.10
15997;DHT22;8103;51.340;12.326;2022-10-04T11:31:12;28.90;39.10
15997;DHT22;8103;51.340;12.326;2022-10-04T11:46:14;33.80;50.90
15997;DHT22;8103;51.340;12.326;2022-10-04T12:00:09;37.50;42.50
15997;DHT22;8103;51.340;12.326;2022-10-04T12:12:21;38.60;39.30
15997;DHT22;8103;51.340;12.326;2022-10-04T12:21:15;37.30;39.70
15997;DHT22;8103;51.340;12.326;2022-10-04T12:33:04;39.30;40.40
15997;DHT22;8103;51.340;12.326;2022-10-04T12:38:41;38.90;52.90
15997;DHT22;8103;51.340;12.326;2022-10-04T12:41:18;37.80;56.50
15997;DHT22;8103;51.340;12.326;2022-10-04T12:44:21;37.90;55.30
15997;DHT22;8103;51.340;12.326;2022-10-04T12:50:41;38.80;55.50
15997;DHT22;8103;51.340;12.326;2022-10-04T12:53:53;38.80;55.50
15997;DHT22;8103;51.340;12.326;2022-10-04T13:08:49;37.20;41.90
15997;DHT22;8103;51.340;12.326;2022-10-04T13:11:40;37.30;41.60
15997;DHT22;8103;51.340;12.326;2022-10-04T13:14:48;37.70;41.50
15997;DHT22;8103;51.340;12.326;2022-10-04T13:20:51;38.40;40.40
15997;DHT22;8103;51.340;12.326;2022-10-04T13:26:45;36.10;42.70
15997;DHT22;8103;51.340;12.326;2022-10-04T13:29:36;35.60;43.40
15997;DHT22;8103;51.340;12.326;2022-10-04T13:32:26;35.60;43.80
15997;DHT22;8103;51.340;12.326;2022-10-04T13:35:15;36.10;43.70
15997;DHT22;8103;51.340;12.326;2022-10-04T13:46:33;36.20;43.70
15997;DHT22;8103;51.340;12.326;2022-10-04T13:49:19;36.80;43.20
15997;DHT22;8103;51.340;12.326;2022-10-04T13:55:45;36.60;44.40
15997;DHT22;8103;51.340;12.326;2022-10-04T13:59:03;36.70;59.10
15997;DHT22;8103;51.340;12.326;2022-10-04T14:05:31;37.40;44.60
15997;DHT22;8103;51.340;12.326;2022-10-04T14:11:32;37.20;50.60
15997;DHT22;8103;51.340;12.326;2022-10-04T14:27:42;25.60;39.00
15997;DHT22;8103;51.340;12.326;2022-10-04T14:33:43;22.50;45.60
15997;DHT22;8103;51.340;12.326;2022-10-04T14:36:35;21.80;47.60
15997;DHT22;8103;51.340;12.326;2022-10-04T14:48:35;20.00;54.20
15997;DHT22;8103;51.340;12.326;2022-10-04T14:53:59;19.50;56.50
15997;DHT22;8103;51.340;12.326;2022-10-04T15:02:42;19.10;59.00
15997;DHT22;8103;51.340;12.326;2022-10-04T15:08:31;18.80;60.20
15997;DHT22;8103;51.340;12.326;2022-10-04T15:11:17;18.70;60.90
15997;DHT22;8103;51.340;12.326;2022-10-04T15:14:03;18.70;61.50
15997;DHT22;8103;51.340;12.326;2022-10-04T15:17:23;18.60;62.00
15997;DHT22;8103;51.340;12.326;2022-10-04T15:34:41;18.40;63.80
15997;DHT22;8103;51.340;12.326;2022-10-04T15:37:42;18.30;64.10
15997;DHT22;8103;51.340;12.326;2022-10-04T15:40:36;18.30;64.50
15997;DHT22;8103;51.340;12.326;2022-10-04T15:43:40;18.20;65.00
15997;DHT22;8103;51.340;12.326;2022-10-04T15:52:17;18.10;66.30
15997;DHT22;8103;51.340;12.326;2022-10-04T16:12:29;17.70;71.00
15997;DHT22;8103;51.340;12.326;2022-10-04T16:15:29;17.60;71.60
15997;DHT22;8103;51.340;12.326;2022-10-04T16:18:26;17.50;72.40
15997;DHT22;8103;51.340;12.326;2022-10-04T16:29:43;17.30;75.80
15997;DHT22;8103;51.340;12.326;2022-10-04T16:32:59;17.20;76.80
15997;DHT22;8103;51.340;12.326;2022-10-04T16:35:40;17.20;78.40
15997;DHT22;8103;51.340;12.326;2022-10-04T16:41:13;17.00;80.10
15997;DHT22;8103;51.340;12.326;2022-10-04T16:44:00;16.90;81.30
15997;DHT22;8103;51.340;12.326;2022-10-04T16:46:38;16.80;82.30
15997;DHT22;8103;51.340;12.326;2022-10-04T16:49:47;16.70;82.80
15997;DHT22;8103;51.340;12.326;2022-10-04T17:06:46;16.20;86.00
15997;DHT22;8103;51.340;12.326;2022-10-04T17:09:32;16.20;86.40
15997;DHT22;8103;51.340;12.326;2022-10-04T17:18:18;16.00;87.50
15997;DHT22;8103;51.340;12.326;2022-10-04T17:20:58;15.90;87.70
15997;DHT22;8103;51.340;12.326;2022-10-04T17:26:46;15.70;87.60
15997;DHT22;8103;51.340;12.326;2022-10-04T17:35:11;15.60;86.70
15997;DHT22;8103;51.340;12.326;2022-10-04T17:37:46;15.60;86.60
15997;DHT22;8103;51.340;12.326;2022-10-04T17:43:29;15.50;86.70
15997;DHT22;8103;51.340;12.326;2022-10-04T17:46:43;15.50;86.50
15997;DHT22;8103;51.340;12.326;2022-10-04T17:49:33;15.40;86.80
15997;DHT22;8103;51.340;12.326;2022-10-04T17:52:39;15.40;86.90
15997;DHT22;8103;51.340;12.326;2022-10-04T17:55:41;15.30;87.10
15997;DHT22;8103;51.340;12.326;2022-10-04T18:01:44;15.20;87.60
15997;DHT22;8103;51.340;12.326;2022-10-04T18:04:22;15.10;87.90
15997;DHT22;8103;51.340;12.326;2022-10-04T18:09:51;15.00;88.90
15997;DHT22;8103;51.340;12.326;2022-10-04T18:12:35;15.00;89.20
15997;DHT22;8103;51.340;12.326;2022-10-04T18:18:19;14.80;90.00
15997;DHT22;8103;51.340;12.326;2022-10-04T18:23:31;14.70;90.40
15997;DHT22;8103;51.340;12.326;2022-10-04T18:26:13;14.70;90.80
15997;DHT22;8103;51.340;12.326;2022-10-04T18:28:45;14.60;91.00
15997;DHT22;8103;51.340;12.326;2022-10-04T18:31:39;14.50;91.30
15997;DHT22;8103;51.340;12.326;2022-10-04T18:37:19;14.50;92.00
15997;DHT22;8103;51.340;12.326;2022-10-04T18:40:13;14.40;92.10
15997;DHT22;8103;51.340;12.326;2022-10-04T18:42:57;14.40;92.20
15997;DHT22;8103;51.340;12.326;2022-10-04T18:45:35;14.40;92.60
15997;DHT22;8103;51.340;12.326;2022-10-04T18:48:16;14.40;92.80
15997;DHT22;8103;51.340;12.326;2022-10-04T18:51:35;14.30;93.00
15997;DHT22;8103;51.340;12.326;2022-10-04T18:57:40;14.20;93.80
15997;DHT22;8103;51.340;12.326;2022-10-04T19:00:39;14.20;94.00
15997;DHT22;8103;51.340;12.326;2022-10-04T19:03:42;14.10;94.30
15997;DHT22;8103;51.340;12.326;2022-10-04T19:06:31;14.10;94.60
15997;DHT22;8103;51.340;12.326;2022-10-04T19:09:33;14.00;95.00
15997;DHT22;8103;51.340;12.326;2022-10-04T19:13:13;13.90;95.30
15997;DHT22;8103;51.340;12.326;2022-10-04T19:15:45;13.90;95.70
15997;DHT22;8103;51.340;12.326;2022-10-04T19:38:52;13.30;98.10
15997;DHT22;8103;51.340;12.326;2022-10-04T19:44:50;13.20;98.70
15997;DHT22;8103;51.340;12.326;2022-10-04T19:50:34;13.10;99.10
15997;DHT22;8103;51.340;12.326;2022-10-04T19:53:18;13.10;99.40
15997;DHT22;8103;51.340;12.326;2022-10-04T19:55:57;13.00;99.60
15997;DHT22;8103;51.340;12.326;2022-10-04T20:01:20;12.90;99.90
15997;DHT22;8103;51.340;12.326;2022-10-04T20:03:51;12.90;99.90
15997;DHT22;8103;51.340;12.326;2022-10-04T20:06:50;12.80;99.90
15997;DHT22;8103;51.340;12.326;2022-10-04T20:12:34;12.70;99.90
15997;DHT22;8103;51.340;12.326;2022-10-04T20:17:44;12.70;99.90
15997;DHT22;8103;51.340;12.326;2022-10-04T20:23:10;12.60;99.90
15997;DHT22;8103;51.340;12.326;2022-10-04T20:26:08;12.60;99.90
15997;DHT22;8103;51.340;12.326;2022-10-04T20:28:39;12.60;99.90
15997;DHT22;8103;51.340;12.326;2022-10-04T20:31:09;12.60;99.90
15997;DHT22;8103;51.340;12.326;2022-10-04T20:34:21;12.50;99.90
15997;DHT22;8103;51.340;12.326;2022-10-04T20:37:09;12.50;99.90
15997;DHT22;8103;51.340;12.326;2022-10-04T20:42:11;12.40;99.90
15997;DHT22;8103;51.340;12.326;2022-10-04T20:47:46;12.40;99.90
15997;DHT22;8103;51.340;12.326;2022-10-04T20:50:20;12.40;99.90
15997;DHT22;8103;51.340;12.326;2022-10-04T20:53:06;12.30;99.90
15997;DHT22;8103;51.340;12.326;2022-10-04T20:55:40;12.30;99.90
15997;DHT22;8103;51.340;12.326;2022-10-04T20:58:30;12.30;99.90
15997;DHT22;8103;51.340;12.326;2022-10-04T21:01:16;12.20;99.90
15997;DHT22;8103;51.340;12.326;2022-10-04T21:04:14;12.20;99.90
15997;DHT22;8103;51.340;12.326;2022-10-04T21:07:15;12.20;99.90
15997;DHT22;8103;51.340;12.326;2022-10-04T21:09:47;12.20;99.90
15997;DHT22;8103;51.340;12.326;2022-10-04T21:15:02;12.10;99.90
15997;DHT22;8103;51.340;12.326;2022-10-04T21:17:39;12.10;99.90
15997;DHT22;8103;51.340;12.326;2022-10-04T21:20:58;12.10;99.90
15997;DHT22;8103;51.340;12.326;2022-10-04T21:23:25;12.10;99.90
15997;DHT22;8103;51.340;12.326;2022-10-04T21:26:21;12.10;99.90
15997;DHT22;8103;51.340;12.326;2022-10-04T21:28:55;12.10;99.90
15997;DHT22;8103;51.340;12.326;2022-10-04T21:31:26;12.10;99.90
15997;DHT22;8103;51.340;12.326;2022-10-04T21:33:53;12.10;99.90
15997;DHT22;8103;51.340;12.326;2022-10-04T21:36:20;12.10;99.90
15997;DHT22;8103;51.340;12.326;2022-10-04T21:38:47;12.10;99.90
15997;DHT22;8103;51.340;12.326;2022-10-04T21:41:15;12.10;99.90
15997;DHT22;8103;51.340;12.326;2022-10-04T21:43:42;12.10;99.90
15997;DHT22;8103;51.340;12.326;2022-10-04T21:46:09;12.10;99.90
15997;DHT22;8103;51.340;12.326;2022-10-04T21:48:36;12.10;99.90
15997;DHT22;8103;51.340;12.326;2022-10-04T21:51:03;12.10;99.90
15997;DHT22;8103;51.340;12.326;2022-10-04T21:53:30;12.20;99.90
15997;DHT22;8103;51.340;12.326;2022-10-04T21:55:57;12.20;99.90
15997;DHT22;8103;51.340;12.326;2022-10-04T21:58:24;12.10;99.90
15997;DHT22;8103;51.340;12.326;2022-10-04T22:00:51;12.10;99.90
15997;DHT22;8103;51.340;12.326;2022-10-04T22:03:18;12.10;99.90
15997;DHT22;8103;51.340;12.326;2022-10-04T22:05:45;12.00;99.90
15997;DHT22;8103;51.340;12.326;2022-10-04T22:08:13;12.00;99.90
15997;DHT22;8103;51.340;12.326;2022-10-04T22:10:40;12.00;99.90
15997;DHT22;8103;51.340;12.326;2022-10-04T22:13:09;12.00;99.90
15997;DHT22;8103;51.340;12.326;2022-10-04T22:15:39;12.00;99.90
15997;DHT22;8103;51.340;12.326;2022-10-04T22:18:06;11.90;99.90
15997;DHT22;8103;51.340;12.326;2022-10-04T22:20:33;11.90;99.90
15997;DHT22;8103;51.340;12.326;2022-10-04T22:23:05;12.00;99.90
15997;DHT22;8103;51.340;12.326;2022-10-04T22:25:41;11.90;99.90
15997;DHT22;8103;51.340;12.326;2022-10-04T22:30:49;11.90;99.90
15997;DHT22;8103;51.340;12.326;2022-10-04T22:36:24;11.90;99.90
15997;DHT22;8103;51.340;12.326;2022-10-04T22:39:09;11.90;99.90
15997;DHT22;8103;51.340;12.326;2022-10-04T22:41:59;11.90;99.90
15997;DHT22;8103;51.340;12.326;2022-10-04T22:44:37;11.90;99.90
15997;DHT22;8103;51.340;12.326;2022-10-04T22:47:14;11.80;99.90
15997;DHT22;8103;51.340;12.326;2022-10-04T22:49:44;11.80;99.90
15997;DHT22;8103;51.340;12.326;2022-10-04T22:52:16;11.80;99.90
15997;DHT22;8103;51.340;12.326;2022-10-04T22:54:52;11.80;99.90
15997;DHT22;8103;51.340;12.326;2022-10-04T22:57:29;11.80;99.90
15997;DHT22;8103;51.340;12.326;2022-10-04T22:59:57;11.70;99.90
15997;DHT22;8103;51.340;12.326;2022-10-04T23:02:28;11.70;99.90
15997;DHT22;8103;51.340;12.326;2022-10-04T23:05:00;11.70;99.90
15997;DHT22;8103;51.340;12.326;2022-10-04T23:07:37;11.70;99.90
15997;DHT22;8103;51.340;12.326;2022-10-04T23:10:05;11.60;99.90
15997;DHT22;8103;51.340;12.326;2022-10-04T23:12:33;11.60;99.90
15997;DHT22;8103;51.340;12.326;2022-10-04T23:15:01;11.60;99.90
15997;DHT22;8103;51.340;12.326;2022-10-04T23:17:37;11.60;99.90
15997;DHT22;8103;51.340;12.326;2022-10-04T23:20:12;11.60;99.90
15997;DHT22;8103;51.340;12.326;2022-10-04T23:22:43;11.60;99.90
15997;DHT22;8103;51.340;12.326;2022-10-04T23:25:28;11.60;99.90
15997;DHT22;8103;51.340;12.326;2022-10-04T23:27:59;11.60;99.90
15997;DHT22;8103;51.340;12.326;2022-10-04T23:30:32;11.60;99.90
15997;DHT22;8103;51.340;12.326;2022-10-04T23:33:01;11.60;99.90
15997;DHT22;8103;51.340;12.326;2022-10-04T23:35:32;11.60;99.90
15997;DHT22;8103;51.340;12.326;2022-10-04T23:38:03;11.50;99.90
15997;DHT22;8103;51.340;12.326;2022-10-04T23:40:32;11.50;99.90
15997;DHT22;8103;51.340;12.326;2022-10-04T23:43:02;11.50;99.90
15997;DHT22;8103;51.340;12.326;2022-10-04T23:45:31;11.50;99.90
15997;DHT22;8103;51.340;12.326;2022-10-04T23:48:10;11.40;99.90
15997;DHT22;8103;51.340;12.326;2022-10-04T23:50:39;11.40;99.90
15997;DHT22;8103;51.340;12.326;2022-10-04T23:53:18;11.40;99.90
15997;DHT22;8103;51.340;12.326;2022-10-04T23:55:54;11.40;99.90
15997;DHT22;8103;51.340;12.326;2022-10-04T23:58:26;11.40;99.90
